sensor_id;sensor_type;location;lat;lon;timestamp;P1;durP1;ratioP1;P2;durP2;ratioP2
3704;SDS011;1868;48.918;9.438;2023-06-01T00:01:46;5.07;;;2.87;;
3704;SDS011;1868;48.918;9.438;2023-06-01T00:04:15;6.90;;;3.40;;
3704;SDS011;1868;48.918;9.438;2023-06-01T00:06:45;4.33;;;2.83;;
3704;SDS011;1868;48.918;9.438;2023-06-01T00:09:14;5.17;;;3.00;;
3704;SDS011;1868;48.918;9.438;2023-06-01T00:11:44;6.73;;;3.30;;
3704;SDS011;1868;48.918;9.438;2023-06-01T00:14:13;6.53;;;3.13;;
3704;SDS011;1868;48.918;9.438;2023-06-01T00:16:42;3.77;;;2.90;;
3704;SDS011;1868;48.918;9.438;2023-06-01T00:19:13;3.70;;;2.77;;
3704;SDS011;1868;48.918;9.438;2023-06-01T00:21:43;3.47;;;3.03;;
3704;SDS011;1868;48.918;9.438;2023-06-01T00:24:12;3.70;;;2.80;;
3704;SDS011;1868;48.918;9.438;2023-06-01T00:26:41;4.13;;;3.03;;
3704;SDS011;1868;48.918;9.438;2023-06-01T00:29:11;3.60;;;2.87;;
3704;SDS011;1868;48.918;9.438;2023-06-01T00:31:40;4.70;;;3.33;;
3704;SDS011;1868;48.918;9.438;2023-06-01T00:34:09;7.83;;;3.40;;
3704;SDS011;1868;48.918;9.438;2023-06-01T00:36:44;7.67;;;3.60;;
3704;SDS011;1868;48.918;9.438;2023-06-01T00:39:14;4.83;;;2.90;;
3704;SDS011;1868;48.918;9.438;2023-06-01T00:41:44;4.70;;;3.50;;
3704;SDS011;1868;48.918;9.438;2023-06-01T00:44:15;4.03;;;2.97;;
3704;SDS011;1868;48.918;9.438;2023-06-01T00:46:44;4.40;;;2.90;;
3704;SDS011;1868;48.918;9.438;2023-06-01T00:49:12;6.57;;;2.70;;
3704;SDS011;1868;48.918;9.438;2023-06-01T00:51:41;6.07;;;2.80;;
3704;SDS011;1868;48.918;9.438;2023-06-01T00:54:12;3.93;;;3.10;;
3704;SDS011;1868;48.918;9.438;2023-06-01T00:56:41;4.40;;;3.00;;
3704;SDS011;1868;48.918;9.438;2023-06-01T00:59:10;3.37;;;2.63;;
3704;SDS011;1868;48.918;9.438;2023-06-01T01:01:40;3.50;;;2.87;;
3704;SDS011;1868;48.918;9.438;2023-06-01T01:04:11;5.50;;;2.90;;
3704;SDS011;1868;48.918;9.438;2023-06-01T01:06:53;7.53;;;2.60;;
3704;SDS011;1868;48.918;9.438;2023-06-01T01:09:32;3.73;;;2.67;;
3704;SDS011;1868;48.918;9.438;2023-06-01T01:12:09;8.73;;;3.33;;
3704;SDS011;1868;48.918;9.438;2023-06-01T01:14:48;5.77;;;2.60;;
3704;SDS011;1868;48.918;9.438;2023-06-01T01:17:26;5.33;;;2.90;;
3704;SDS011;1868;48.918;9.438;2023-06-01T01:20:06;4.40;;;2.57;;
3704;SDS011;1868;48.918;9.438;2023-06-01T01:22:47;3.23;;;2.30;;
3704;SDS011;1868;48.918;9.438;2023-06-01T01:25:52;5.80;;;3.10;;
3704;SDS011;1868;48.918;9.438;2023-06-01T01:28:45;3.13;;;2.70;;
3704;SDS011;1868;48.918;9.438;2023-06-01T01:31:18;6.67;;;3.17;;
3704;SDS011;1868;48.918;9.438;2023-06-01T01:33:53;4.57;;;2.80;;
3704;SDS011;1868;48.918;9.438;2023-06-01T01:36:23;3.97;;;2.80;;
3704;SDS011;1868;48.918;9.438;2023-06-01T01:38:56;4.10;;;2.93;;
3704;SDS011;1868;48.918;9.438;2023-06-01T01:41:28;6.73;;;2.77;;
3704;SDS011;1868;48.918;9.438;2023-06-01T01:44:01;6.37;;;2.60;;
3704;SDS011;1868;48.918;9.438;2023-06-01T01:46:32;3.40;;;2.80;;
3704;SDS011;1868;48.918;9.438;2023-06-01T01:49:16;3.30;;;3.00;;
3704;SDS011;1868;48.918;9.438;2023-06-01T01:51:50;4.00;;;3.27;;
3704;SDS011;1868;48.918;9.438;2023-06-01T01:54:27;4.23;;;2.77;;
3704;SDS011;1868;48.918;9.438;2023-06-01T01:56:58;3.03;;;2.73;;
3704;SDS011;1868;48.918;9.438;2023-06-01T01:59:32;3.60;;;2.30;;
3704;SDS011;1868;48.918;9.438;2023-06-01T02:02:01;4.10;;;3.13;;
3704;SDS011;1868;48.918;9.438;2023-06-01T02:04:31;4.50;;;3.60;;
3704;SDS011;1868;48.918;9.438;2023-06-01T02:06:59;3.90;;;3.00;;
3704;SDS011;1868;48.918;9.438;2023-06-01T02:09:31;6.27;;;4.70;;
3704;SDS011;1868;48.918;9.438;2023-06-01T02:12:00;6.30;;;3.40;;
3704;SDS011;1868;48.918;9.438;2023-06-01T02:14:32;2.97;;;2.50;;
3704;SDS011;1868;48.918;9.438;2023-06-01T02:17:01;4.07;;;2.93;;
3704;SDS011;1868;48.918;9.438;2023-06-01T02:19:32;3.80;;;2.53;;
3704;SDS011;1868;48.918;9.438;2023-06-01T02:22:02;2.33;;;2.17;;
3704;SDS011;1868;48.918;9.438;2023-06-01T02:24:31;3.57;;;3.27;;
3704;SDS011;1868;48.918;9.438;2023-06-01T02:27:00;3.47;;;3.00;;
3704;SDS011;1868;48.918;9.438;2023-06-01T02:29:29;3.27;;;2.87;;
3704;SDS011;1868;48.918;9.438;2023-06-01T02:31:59;6.03;;;3.10;;
3704;SDS011;1868;48.918;9.438;2023-06-01T02:34:28;6.03;;;3.10;;
3704;SDS011;1868;48.918;9.438;2023-06-01T02:36:57;3.90;;;2.60;;
3704;SDS011;1868;48.918;9.438;2023-06-01T02:39:26;5.13;;;3.17;;
3704;SDS011;1868;48.918;9.438;2023-06-01T02:41:56;5.93;;;3.93;;
3704;SDS011;1868;48.918;9.438;2023-06-01T02:44:25;5.07;;;3.50;;
3704;SDS011;1868;48.918;9.438;2023-06-01T02:46:53;6.33;;;3.60;;
3704;SDS011;1868;48.918;9.438;2023-06-01T02:49:24;11.93;;;3.60;;
3704;SDS011;1868;48.918;9.438;2023-06-01T02:51:53;7.47;;;3.53;;
3704;SDS011;1868;48.918;9.438;2023-06-01T02:54:24;4.30;;;3.13;;
3704;SDS011;1868;48.918;9.438;2023-06-01T02:56:54;3.20;;;2.73;;
3704;SDS011;1868;48.918;9.438;2023-06-01T02:59:33;3.27;;;2.57;;
3704;SDS011;1868;48.918;9.438;2023-06-01T03:02:03;3.07;;;2.70;;
3704;SDS011;1868;48.918;9.438;2023-06-01T03:04:34;5.30;;;2.60;;
3704;SDS011;1868;48.918;9.438;2023-06-01T03:07:04;5.90;;;3.10;;
3704;SDS011;1868;48.918;9.438;2023-06-01T03:09:43;4.87;;;2.97;;
3704;SDS011;1868;48.918;9.438;2023-06-01T03:12:47;3.70;;;2.63;;
3704;SDS011;1868;48.918;9.438;2023-06-01T03:15:16;3.80;;;3.20;;
3704;SDS011;1868;48.918;9.438;2023-06-01T03:17:46;5.73;;;2.70;;
3704;SDS011;1868;48.918;9.438;2023-06-01T03:20:17;5.37;;;2.70;;
3704;SDS011;1868;48.918;9.438;2023-06-01T03:22:47;8.40;;;2.97;;
3704;SDS011;1868;48.918;9.438;2023-06-01T03:25:19;3.93;;;2.37;;
3704;SDS011;1868;48.918;9.438;2023-06-01T03:27:48;3.50;;;2.80;;
3704;SDS011;1868;48.918;9.438;2023-06-01T03:30:18;4.90;;;2.93;;
3704;SDS011;1868;48.918;9.438;2023-06-01T03:32:48;5.30;;;3.37;;
3704;SDS011;1868;48.918;9.438;2023-06-01T03:35:18;5.70;;;2.90;;
3704;SDS011;1868;48.918;9.438;2023-06-01T03:37:47;4.50;;;3.00;;
3704;SDS011;1868;48.918;9.438;2023-06-01T03:40:19;3.07;;;2.67;;
3704;SDS011;1868;48.918;9.438;2023-06-01T03:42:48;4.80;;;2.43;;
3704;SDS011;1868;48.918;9.438;2023-06-01T03:45:19;3.20;;;2.90;;
3704;SDS011;1868;48.918;9.438;2023-06-01T03:47:49;5.80;;;3.03;;
3704;SDS011;1868;48.918;9.438;2023-06-01T03:50:21;4.73;;;2.90;;
3704;SDS011;1868;48.918;9.438;2023-06-01T03:52:52;4.17;;;2.90;;
3704;SDS011;1868;48.918;9.438;2023-06-01T03:55:21;8.40;;;2.77;;
3704;SDS011;1868;48.918;9.438;2023-06-01T03:58:05;3.90;;;2.90;;
3704;SDS011;1868;48.918;9.438;2023-06-01T04:00:35;4.87;;;3.07;;
3704;SDS011;1868;48.918;9.438;2023-06-01T04:03:04;3.47;;;2.90;;
3704;SDS011;1868;48.918;9.438;2023-06-01T04:05:37;4.17;;;2.97;;
3704;SDS011;1868;48.918;9.438;2023-06-01T04:08:07;4.60;;;3.20;;
3704;SDS011;1868;48.918;9.438;2023-06-01T04:10:38;4.23;;;2.83;;
3704;SDS011;1868;48.918;9.438;2023-06-01T04:13:10;3.63;;;2.77;;
3704;SDS011;1868;48.918;9.438;2023-06-01T04:15:38;9.57;;;2.77;;
3704;SDS011;1868;48.918;9.438;2023-06-01T04:18:08;6.33;;;3.07;;
3704;SDS011;1868;48.918;9.438;2023-06-01T04:20:56;5.60;;;3.50;;
3704;SDS011;1868;48.918;9.438;2023-06-01T04:23:26;4.50;;;2.80;;
3704;SDS011;1868;48.918;9.438;2023-06-01T04:25:55;5.70;;;3.27;;
3704;SDS011;1868;48.918;9.438;2023-06-01T04:28:28;4.23;;;2.93;;
3704;SDS011;1868;48.918;9.438;2023-06-01T04:30:57;8.00;;;3.10;;
3704;SDS011;1868;48.918;9.438;2023-06-01T04:33:28;4.30;;;3.23;;
3704;SDS011;1868;48.918;9.438;2023-06-01T04:35:59;4.50;;;3.00;;
3704;SDS011;1868;48.918;9.438;2023-06-01T04:38:30;5.30;;;3.00;;
3704;SDS011;1868;48.918;9.438;2023-06-01T04:41:01;5.40;;;3.23;;
3704;SDS011;1868;48.918;9.438;2023-06-01T04:43:32;4.97;;;3.03;;
3704;SDS011;1868;48.918;9.438;2023-06-01T04:46:01;4.90;;;3.00;;
3704;SDS011;1868;48.918;9.438;2023-06-01T04:48:33;8.40;;;3.50;;
3704;SDS011;1868;48.918;9.438;2023-06-01T04:51:04;5.30;;;3.40;;
3704;SDS011;1868;48.918;9.438;2023-06-01T04:53:33;8.23;;;3.80;;
3704;SDS011;1868;48.918;9.438;2023-06-01T04:56:02;8.70;;;3.97;;
3704;SDS011;1868;48.918;9.438;2023-06-01T04:58:32;4.57;;;3.27;;
3704;SDS011;1868;48.918;9.438;2023-06-01T05:01:01;13.13;;;3.60;;
3704;SDS011;1868;48.918;9.438;2023-06-01T05:03:30;6.00;;;3.63;;
3704;SDS011;1868;48.918;9.438;2023-06-01T05:05:58;3.80;;;2.97;;
3704;SDS011;1868;48.918;9.438;2023-06-01T05:08:29;5.70;;;3.77;;
3704;SDS011;1868;48.918;9.438;2023-06-01T05:11:00;4.50;;;3.07;;
3704;SDS011;1868;48.918;9.438;2023-06-01T05:13:29;5.23;;;3.67;;
3704;SDS011;1868;48.918;9.438;2023-06-01T05:15:58;3.73;;;2.70;;
3704;SDS011;1868;48.918;9.438;2023-06-01T05:18:27;11.43;;;3.63;;
3704;SDS011;1868;48.918;9.438;2023-06-01T05:20:56;4.40;;;3.23;;
3704;SDS011;1868;48.918;9.438;2023-06-01T05:23:27;6.00;;;4.00;;
3704;SDS011;1868;48.918;9.438;2023-06-01T05:25:59;5.90;;;3.30;;
3704;SDS011;1868;48.918;9.438;2023-06-01T05:28:32;4.27;;;3.50;;
3704;SDS011;1868;48.918;9.438;2023-06-01T05:31:05;7.53;;;3.50;;
3704;SDS011;1868;48.918;9.438;2023-06-01T05:33:41;5.40;;;3.33;;
3704;SDS011;1868;48.918;9.438;2023-06-01T05:36:11;5.30;;;3.30;;
3704;SDS011;1868;48.918;9.438;2023-06-01T05:38:42;4.47;;;3.30;;
3704;SDS011;1868;48.918;9.438;2023-06-01T05:41:11;5.23;;;3.80;;
3704;SDS011;1868;48.918;9.438;2023-06-01T05:43:40;6.00;;;3.33;;
3704;SDS011;1868;48.918;9.438;2023-06-01T05:46:10;10.83;;;3.77;;
3704;SDS011;1868;48.918;9.438;2023-06-01T05:48:39;8.83;;;3.33;;
3704;SDS011;1868;48.918;9.438;2023-06-01T05:51:10;6.03;;;3.67;;
3704;SDS011;1868;48.918;9.438;2023-06-01T05:53:43;3.77;;;3.23;;
3704;SDS011;1868;48.918;9.438;2023-06-01T05:56:14;8.43;;;3.50;;
3704;SDS011;1868;48.918;9.438;2023-06-01T05:58:43;8.17;;;3.27;;
3704;SDS011;1868;48.918;9.438;2023-06-01T06:01:18;5.37;;;3.30;;
3704;SDS011;1868;48.918;9.438;2023-06-01T06:03:49;5.93;;;2.90;;
3704;SDS011;1868;48.918;9.438;2023-06-01T06:06:18;9.87;;;4.10;;
3704;SDS011;1868;48.918;9.438;2023-06-01T06:08:52;4.37;;;3.23;;
3704;SDS011;1868;48.918;9.438;2023-06-01T06:11:23;6.43;;;3.60;;
3704;SDS011;1868;48.918;9.438;2023-06-01T06:13:52;6.73;;;4.10;;
3704;SDS011;1868;48.918;9.438;2023-06-01T06:16:22;9.60;;;3.73;;
3704;SDS011;1868;48.918;9.438;2023-06-01T06:18:52;6.17;;;4.10;;
3704;SDS011;1868;48.918;9.438;2023-06-01T06:21:20;4.70;;;3.60;;
3704;SDS011;1868;48.918;9.438;2023-06-01T06:23:49;4.23;;;3.40;;
3704;SDS011;1868;48.918;9.438;2023-06-01T06:26:25;5.83;;;3.50;;
3704;SDS011;1868;48.918;9.438;2023-06-01T06:28:54;4.17;;;2.77;;
3704;SDS011;1868;48.918;9.438;2023-06-01T06:31:23;5.13;;;2.70;;
3704;SDS011;1868;48.918;9.438;2023-06-01T06:33:52;7.57;;;3.17;;
3704;SDS011;1868;48.918;9.438;2023-06-01T06:36:22;4.97;;;2.67;;
3704;SDS011;1868;48.918;9.438;2023-06-01T06:38:53;4.83;;;3.53;;
3704;SDS011;1868;48.918;9.438;2023-06-01T06:41:22;5.57;;;3.03;;
3704;SDS011;1868;48.918;9.438;2023-06-01T06:43:51;4.27;;;2.73;;
3704;SDS011;1868;48.918;9.438;2023-06-01T06:46:19;3.83;;;3.10;;
3704;SDS011;1868;48.918;9.438;2023-06-01T06:48:50;5.00;;;3.47;;
3704;SDS011;1868;48.918;9.438;2023-06-01T06:51:19;5.87;;;2.73;;
3704;SDS011;1868;48.918;9.438;2023-06-01T06:53:47;12.23;;;3.07;;
3704;SDS011;1868;48.918;9.438;2023-06-01T06:56:18;7.40;;;3.10;;
3704;SDS011;1868;48.918;9.438;2023-06-01T06:58:47;5.33;;;2.70;;
3704;SDS011;1868;48.918;9.438;2023-06-01T07:01:32;8.60;;;3.70;;
3704;SDS011;1868;48.918;9.438;2023-06-01T07:04:07;6.40;;;2.90;;
3704;SDS011;1868;48.918;9.438;2023-06-01T07:06:36;6.10;;;2.87;;
3704;SDS011;1868;48.918;9.438;2023-06-01T07:09:05;3.17;;;2.57;;
3704;SDS011;1868;48.918;9.438;2023-06-01T07:11:38;4.70;;;3.10;;
3704;SDS011;1868;48.918;9.438;2023-06-01T07:14:11;10.50;;;2.73;;
3704;SDS011;1868;48.918;9.438;2023-06-01T07:16:40;4.57;;;2.10;;
3704;SDS011;1868;48.918;9.438;2023-06-01T07:19:08;4.07;;;3.47;;
3704;SDS011;1868;48.918;9.438;2023-06-01T07:21:37;6.93;;;3.80;;
3704;SDS011;1868;48.918;9.438;2023-06-01T07:24:06;7.40;;;3.67;;
3704;SDS011;1868;48.918;9.438;2023-06-01T07:26:38;7.13;;;2.90;;
3704;SDS011;1868;48.918;9.438;2023-06-01T07:29:07;6.43;;;3.20;;
3704;SDS011;1868;48.918;9.438;2023-06-01T07:31:37;8.37;;;3.60;;
3704;SDS011;1868;48.918;9.438;2023-06-01T07:34:06;5.10;;;2.80;;
3704;SDS011;1868;48.918;9.438;2023-06-01T07:36:35;6.43;;;3.20;;
3704;SDS011;1868;48.918;9.438;2023-06-01T07:39:06;7.43;;;2.90;;
3704;SDS011;1868;48.918;9.438;2023-06-01T07:41:35;9.50;;;3.80;;
3704;SDS011;1868;48.918;9.438;2023-06-01T07:44:07;6.83;;;3.80;;
3704;SDS011;1868;48.918;9.438;2023-06-01T07:46:36;3.73;;;2.90;;
3704;SDS011;1868;48.918;9.438;2023-06-01T07:49:05;5.63;;;2.90;;
3704;SDS011;1868;48.918;9.438;2023-06-01T07:51:40;5.40;;;3.37;;
3704;SDS011;1868;48.918;9.438;2023-06-01T07:54:11;5.40;;;2.90;;
3704;SDS011;1868;48.918;9.438;2023-06-01T07:56:40;6.13;;;2.90;;
3704;SDS011;1868;48.918;9.438;2023-06-01T07:59:11;5.73;;;2.93;;
3704;SDS011;1868;48.918;9.438;2023-06-01T08:01:40;3.73;;;2.90;;
3704;SDS011;1868;48.918;9.438;2023-06-01T08:04:09;6.57;;;3.03;;
3704;SDS011;1868;48.918;9.438;2023-06-01T08:06:39;5.17;;;2.70;;
3704;SDS011;1868;48.918;9.438;2023-06-01T08:09:09;4.23;;;3.20;;
3704;SDS011;1868;48.918;9.438;2023-06-01T08:11:38;3.30;;;3.00;;
3704;SDS011;1868;48.918;9.438;2023-06-01T08:14:07;4.97;;;3.00;;
3704;SDS011;1868;48.918;9.438;2023-06-01T08:16:38;3.23;;;2.93;;
3704;SDS011;1868;48.918;9.438;2023-06-01T08:19:06;4.90;;;3.50;;
3704;SDS011;1868;48.918;9.438;2023-06-01T08:21:35;7.73;;;3.10;;
3704;SDS011;1868;48.918;9.438;2023-06-01T08:24:04;3.77;;;3.10;;
3704;SDS011;1868;48.918;9.438;2023-06-01T08:26:35;5.20;;;3.63;;
3704;SDS011;1868;48.918;9.438;2023-06-01T08:29:04;4.63;;;3.70;;
3704;SDS011;1868;48.918;9.438;2023-06-01T08:31:33;4.13;;;3.03;;
3704;SDS011;1868;48.918;9.438;2023-06-01T08:34:05;5.00;;;3.50;;
3704;SDS011;1868;48.918;9.438;2023-06-01T08:36:33;3.40;;;2.90;;
3704;SDS011;1868;48.918;9.438;2023-06-01T08:39:06;4.17;;;3.20;;
3704;SDS011;1868;48.918;9.438;2023-06-01T08:41:54;5.10;;;3.70;;
3704;SDS011;1868;48.918;9.438;2023-06-01T08:44:38;4.70;;;3.47;;
3704;SDS011;1868;48.918;9.438;2023-06-01T08:47:09;5.87;;;3.10;;
3704;SDS011;1868;48.918;9.438;2023-06-01T08:49:40;4.70;;;3.37;;
3704;SDS011;1868;48.918;9.438;2023-06-01T08:52:11;12.70;;;3.80;;
3704;SDS011;1868;48.918;9.438;2023-06-01T08:54:44;3.40;;;3.10;;
3704;SDS011;1868;48.918;9.438;2023-06-01T08:57:13;3.97;;;3.13;;
3704;SDS011;1868;48.918;9.438;2023-06-01T08:59:43;5.30;;;3.43;;
3704;SDS011;1868;48.918;9.438;2023-06-01T09:02:14;6.73;;;3.80;;
3704;SDS011;1868;48.918;9.438;2023-06-01T09:04:45;3.70;;;3.30;;
3704;SDS011;1868;48.918;9.438;2023-06-01T09:07:13;6.10;;;3.37;;
3704;SDS011;1868;48.918;9.438;2023-06-01T09:09:43;9.50;;;3.70;;
3704;SDS011;1868;48.918;9.438;2023-06-01T09:12:16;8.93;;;3.93;;
3704;SDS011;1868;48.918;9.438;2023-06-01T09:14:51;10.87;;;4.63;;
3704;SDS011;1868;48.918;9.438;2023-06-01T09:17:38;5.17;;;3.13;;
3704;SDS011;1868;48.918;9.438;2023-06-01T09:20:12;5.63;;;3.70;;
3704;SDS011;1868;48.918;9.438;2023-06-01T09:22:43;3.40;;;3.10;;
3704;SDS011;1868;48.918;9.438;2023-06-01T09:25:13;6.53;;;3.87;;
3704;SDS011;1868;48.918;9.438;2023-06-01T09:27:44;5.23;;;3.83;;
3704;SDS011;1868;48.918;9.438;2023-06-01T09:30:15;5.90;;;3.17;;
3704;SDS011;1868;48.918;9.438;2023-06-01T09:32:45;6.07;;;4.10;;
3704;SDS011;1868;48.918;9.438;2023-06-01T09:35:23;5.80;;;4.00;;
3704;SDS011;1868;48.918;9.438;2023-06-01T09:38:05;5.40;;;4.40;;
3704;SDS011;1868;48.918;9.438;2023-06-01T09:40:34;5.80;;;3.73;;
3704;SDS011;1868;48.918;9.438;2023-06-01T09:43:20;9.43;;;4.50;;
3704;SDS011;1868;48.918;9.438;2023-06-01T09:46:05;4.23;;;3.83;;
3704;SDS011;1868;48.918;9.438;2023-06-01T09:48:36;5.23;;;4.20;;
3704;SDS011;1868;48.918;9.438;2023-06-01T09:51:06;5.90;;;4.13;;
3704;SDS011;1868;48.918;9.438;2023-06-01T09:53:53;5.27;;;3.70;;
3704;SDS011;1868;48.918;9.438;2023-06-01T09:56:21;4.90;;;4.10;;
3704;SDS011;1868;48.918;9.438;2023-06-01T09:58:56;9.00;;;4.40;;
3704;SDS011;1868;48.918;9.438;2023-06-01T10:01:27;6.83;;;3.73;;
3704;SDS011;1868;48.918;9.438;2023-06-01T10:03:58;11.07;;;3.20;;
3704;SDS011;1868;48.918;9.438;2023-06-01T10:06:31;8.30;;;4.37;;
3704;SDS011;1868;48.918;9.438;2023-06-01T10:09:03;6.40;;;4.10;;
3704;SDS011;1868;48.918;9.438;2023-06-01T10:11:35;5.97;;;4.23;;
3704;SDS011;1868;48.918;9.438;2023-06-01T10:14:03;4.93;;;4.20;;
3704;SDS011;1868;48.918;9.438;2023-06-01T10:16:32;4.13;;;3.73;;
3704;SDS011;1868;48.918;9.438;2023-06-01T10:19:02;5.27;;;4.10;;
3704;SDS011;1868;48.918;9.438;2023-06-01T10:21:33;9.87;;;3.97;;
3704;SDS011;1868;48.918;9.438;2023-06-01T10:24:03;5.90;;;3.60;;
3704;SDS011;1868;48.918;9.438;2023-06-01T10:26:33;8.73;;;4.20;;
3704;SDS011;1868;48.918;9.438;2023-06-01T10:29:10;6.20;;;3.50;;
3704;SDS011;1868;48.918;9.438;2023-06-01T10:31:41;7.30;;;3.43;;
3704;SDS011;1868;48.918;9.438;2023-06-01T10:34:11;3.63;;;3.33;;
3704;SDS011;1868;48.918;9.438;2023-06-01T10:39:45;6.07;;;4.30;;
3704;SDS011;1868;48.918;9.438;2023-06-01T10:48:07;5.63;;;3.90;;
3704;SDS011;1868;48.918;9.438;2023-06-01T10:50:38;4.40;;;3.83;;
3704;SDS011;1868;48.918;9.438;2023-06-01T10:53:25;3.67;;;3.33;;
3704;SDS011;1868;48.918;9.438;2023-06-01T10:59:11;3.17;;;2.87;;
3704;SDS011;1868;48.918;9.438;2023-06-01T11:01:45;3.80;;;3.37;;
3704;SDS011;1868;48.918;9.438;2023-06-01T11:04:16;3.37;;;2.80;;
3704;SDS011;1868;48.918;9.438;2023-06-01T11:10:08;3.80;;;2.67;;
3704;SDS011;1868;48.918;9.438;2023-06-01T11:18:59;3.67;;;3.30;;
3704;SDS011;1868;48.918;9.438;2023-06-01T11:21:30;4.20;;;2.90;;
3704;SDS011;1868;48.918;9.438;2023-06-01T11:24:05;3.37;;;3.07;;
3704;SDS011;1868;48.918;9.438;2023-06-01T11:26:39;3.40;;;3.17;;
3704;SDS011;1868;48.918;9.438;2023-06-01T11:29:10;3.10;;;2.80;;
3704;SDS011;1868;48.918;9.438;2023-06-01T11:31:42;4.27;;;3.37;;
3704;SDS011;1868;48.918;9.438;2023-06-01T11:34:15;3.97;;;2.93;;
3704;SDS011;1868;48.918;9.438;2023-06-01T11:36:46;4.50;;;3.67;;
3704;SDS011;1868;48.918;9.438;2023-06-01T11:39:20;4.20;;;3.50;;
3704;SDS011;1868;48.918;9.438;2023-06-01T11:41:52;3.67;;;2.93;;
3704;SDS011;1868;48.918;9.438;2023-06-01T11:44:33;2.80;;;2.60;;
3704;SDS011;1868;48.918;9.438;2023-06-01T11:47:02;4.97;;;3.13;;
3704;SDS011;1868;48.918;9.438;2023-06-01T11:49:40;4.30;;;3.23;;
3704;SDS011;1868;48.918;9.438;2023-06-01T11:52:14;6.00;;;3.10;;
3704;SDS011;1868;48.918;9.438;2023-06-01T11:54:44;4.83;;;3.40;;
3704;SDS011;1868;48.918;9.438;2023-06-01T11:57:17;2.93;;;2.70;;
3704;SDS011;1868;48.918;9.438;2023-06-01T11:59:47;3.77;;;3.27;;
3704;SDS011;1868;48.918;9.438;2023-06-01T12:02:18;4.40;;;3.00;;
3704;SDS011;1868;48.918;9.438;2023-06-01T12:04:55;4.43;;;3.30;;
3704;SDS011;1868;48.918;9.438;2023-06-01T12:07:25;3.27;;;2.90;;
3704;SDS011;1868;48.918;9.438;2023-06-01T12:09:55;4.93;;;3.00;;
3704;SDS011;1868;48.918;9.438;2023-06-01T12:12:28;14.80;;;4.17;;
3704;SDS011;1868;48.918;9.438;2023-06-01T12:15:01;4.10;;;3.70;;
3704;SDS011;1868;48.918;9.438;2023-06-01T12:17:45;4.20;;;2.90;;
3704;SDS011;1868;48.918;9.438;2023-06-01T12:20:27;3.73;;;3.47;;
3704;SDS011;1868;48.918;9.438;2023-06-01T12:22:58;3.63;;;3.20;;
3704;SDS011;1868;48.918;9.438;2023-06-01T12:25:30;10.93;;;3.67;;
3704;SDS011;1868;48.918;9.438;2023-06-01T12:28:01;7.70;;;3.30;;
3704;SDS011;1868;48.918;9.438;2023-06-01T12:30:32;7.03;;;3.03;;
3704;SDS011;1868;48.918;9.438;2023-06-01T12:33:02;3.90;;;3.30;;
3704;SDS011;1868;48.918;9.438;2023-06-01T12:35:32;4.13;;;2.83;;
3704;SDS011;1868;48.918;9.438;2023-06-01T12:38:16;7.60;;;3.30;;
3704;SDS011;1868;48.918;9.438;2023-06-01T12:40:52;7.63;;;3.60;;
3704;SDS011;1868;48.918;9.438;2023-06-01T12:43:36;4.87;;;3.20;;
3704;SDS011;1868;48.918;9.438;2023-06-01T12:46:06;3.23;;;2.93;;
3704;SDS011;1868;48.918;9.438;2023-06-01T12:48:47;4.00;;;2.50;;
3704;SDS011;1868;48.918;9.438;2023-06-01T12:51:17;4.73;;;3.03;;
3704;SDS011;1868;48.918;9.438;2023-06-01T12:53:46;2.43;;;2.23;;
3704;SDS011;1868;48.918;9.438;2023-06-01T12:56:15;3.53;;;3.10;;
3704;SDS011;1868;48.918;9.438;2023-06-01T12:58:48;3.50;;;2.60;;
3704;SDS011;1868;48.918;9.438;2023-06-01T13:01:17;2.60;;;2.40;;
3704;SDS011;1868;48.918;9.438;2023-06-01T13:03:45;2.87;;;2.10;;
3704;SDS011;1868;48.918;9.438;2023-06-01T13:06:19;4.50;;;2.30;;
3704;SDS011;1868;48.918;9.438;2023-06-01T13:08:47;5.00;;;2.40;;
3704;SDS011;1868;48.918;9.438;2023-06-01T13:11:17;7.97;;;2.60;;
3704;SDS011;1868;48.918;9.438;2023-06-01T13:13:47;2.33;;;2.23;;
3704;SDS011;1868;48.918;9.438;2023-06-01T13:16:16;3.70;;;2.63;;
3704;SDS011;1868;48.918;9.438;2023-06-01T13:18:47;3.27;;;2.70;;
3704;SDS011;1868;48.918;9.438;2023-06-01T13:21:17;2.17;;;2.07;;
3704;SDS011;1868;48.918;9.438;2023-06-01T13:23:48;3.00;;;2.23;;
3704;SDS011;1868;48.918;9.438;2023-06-01T13:26:17;3.00;;;2.33;;
3704;SDS011;1868;48.918;9.438;2023-06-01T13:28:50;6.43;;;2.30;;
3704;SDS011;1868;48.918;9.438;2023-06-01T13:31:18;4.77;;;2.37;;
3704;SDS011;1868;48.918;9.438;2023-06-01T13:33:49;6.90;;;2.07;;
3704;SDS011;1868;48.918;9.438;2023-06-01T13:36:18;3.77;;;2.30;;
3704;SDS011;1868;48.918;9.438;2023-06-01T13:38:47;2.10;;;1.90;;
3704;SDS011;1868;48.918;9.438;2023-06-01T13:41:18;3.63;;;2.27;;
3704;SDS011;1868;48.918;9.438;2023-06-01T13:43:46;3.60;;;1.90;;
3704;SDS011;1868;48.918;9.438;2023-06-01T13:46:18;2.93;;;2.10;;
3704;SDS011;1868;48.918;9.438;2023-06-01T13:48:47;4.17;;;1.77;;
3704;SDS011;1868;48.918;9.438;2023-06-01T13:51:16;5.70;;;2.50;;
3704;SDS011;1868;48.918;9.438;2023-06-01T13:53:45;3.40;;;1.83;;
3704;SDS011;1868;48.918;9.438;2023-06-01T13:56:14;6.80;;;2.30;;
3704;SDS011;1868;48.918;9.438;2023-06-01T13:58:43;2.63;;;1.57;;
3704;SDS011;1868;48.918;9.438;2023-06-01T14:01:16;2.43;;;2.10;;
3704;SDS011;1868;48.918;9.438;2023-06-01T14:03:48;2.00;;;1.90;;
3704;SDS011;1868;48.918;9.438;2023-06-01T14:06:18;2.80;;;2.60;;
3704;SDS011;1868;48.918;9.438;2023-06-01T14:08:47;1.87;;;1.77;;
3704;SDS011;1868;48.918;9.438;2023-06-01T14:11:17;6.47;;;2.00;;
3704;SDS011;1868;48.918;9.438;2023-06-01T14:13:47;2.70;;;1.80;;
3704;SDS011;1868;48.918;9.438;2023-06-01T14:16:17;4.53;;;1.80;;
3704;SDS011;1868;48.918;9.438;2023-06-01T14:18:46;2.53;;;1.93;;
3704;SDS011;1868;48.918;9.438;2023-06-01T14:21:15;2.60;;;1.90;;
3704;SDS011;1868;48.918;9.438;2023-06-01T14:23:44;1.63;;;1.50;;
3704;SDS011;1868;48.918;9.438;2023-06-01T14:26:13;2.63;;;2.33;;
3704;SDS011;1868;48.918;9.438;2023-06-01T14:28:43;4.67;;;2.00;;
3704;SDS011;1868;48.918;9.438;2023-06-01T14:31:13;2.17;;;2.00;;
3704;SDS011;1868;48.918;9.438;2023-06-01T14:33:43;5.07;;;1.93;;
3704;SDS011;1868;48.918;9.438;2023-06-01T14:36:12;2.20;;;1.80;;
3704;SDS011;1868;48.918;9.438;2023-06-01T14:38:41;4.07;;;1.60;;
3704;SDS011;1868;48.918;9.438;2023-06-01T14:41:10;2.40;;;1.50;;
3704;SDS011;1868;48.918;9.438;2023-06-01T14:43:39;1.97;;;1.57;;
3704;SDS011;1868;48.918;9.438;2023-06-01T14:46:09;6.73;;;1.90;;
3704;SDS011;1868;48.918;9.438;2023-06-01T14:48:37;3.17;;;1.30;;
3704;SDS011;1868;48.918;9.438;2023-06-01T14:51:07;3.07;;;1.90;;
3704;SDS011;1868;48.918;9.438;2023-06-01T14:53:37;1.93;;;1.80;;
3704;SDS011;1868;48.918;9.438;2023-06-01T14:56:06;3.00;;;2.03;;
3704;SDS011;1868;48.918;9.438;2023-06-01T14:58:36;2.20;;;1.57;;
3704;SDS011;1868;48.918;9.438;2023-06-01T15:01:04;2.20;;;1.67;;
3704;SDS011;1868;48.918;9.438;2023-06-01T15:03:33;2.70;;;1.80;;
3704;SDS011;1868;48.918;9.438;2023-06-01T15:06:06;4.13;;;1.60;;
3704;SDS011;1868;48.918;9.438;2023-06-01T15:08:37;2.00;;;1.80;;
3704;SDS011;1868;48.918;9.438;2023-06-01T15:11:05;1.80;;;1.60;;
3704;SDS011;1868;48.918;9.438;2023-06-01T15:13:34;1.93;;;1.60;;
3704;SDS011;1868;48.918;9.438;2023-06-01T15:16:04;4.10;;;2.03;;
3704;SDS011;1868;48.918;9.438;2023-06-01T15:18:33;2.77;;;1.97;;
3704;SDS011;1868;48.918;9.438;2023-06-01T15:21:03;2.80;;;1.20;;
3704;SDS011;1868;48.918;9.438;2023-06-01T15:23:33;1.80;;;1.70;;
3704;SDS011;1868;48.918;9.438;2023-06-01T15:26:02;1.70;;;1.33;;
3704;SDS011;1868;48.918;9.438;2023-06-01T15:28:31;3.07;;;1.90;;
3704;SDS011;1868;48.918;9.438;2023-06-01T15:31:01;1.87;;;1.67;;
3704;SDS011;1868;48.918;9.438;2023-06-01T15:33:31;2.40;;;1.50;;
3704;SDS011;1868;48.918;9.438;2023-06-01T15:36:00;2.50;;;1.93;;
3704;SDS011;1868;48.918;9.438;2023-06-01T15:38:30;2.93;;;1.60;;
3704;SDS011;1868;48.918;9.438;2023-06-01T15:41:00;2.00;;;1.40;;
3704;SDS011;1868;48.918;9.438;2023-06-01T15:43:29;3.57;;;1.27;;
3704;SDS011;1868;48.918;9.438;2023-06-01T15:45:58;2.00;;;1.47;;
3704;SDS011;1868;48.918;9.438;2023-06-01T15:48:29;4.40;;;2.20;;
3704;SDS011;1868;48.918;9.438;2023-06-01T15:50:59;2.03;;;1.87;;
3704;SDS011;1868;48.918;9.438;2023-06-01T15:53:28;1.80;;;1.70;;
3704;SDS011;1868;48.918;9.438;2023-06-01T15:55:57;1.60;;;1.50;;
3704;SDS011;1868;48.918;9.438;2023-06-01T15:58:29;1.57;;;1.47;;
3704;SDS011;1868;48.918;9.438;2023-06-01T16:00:57;3.50;;;1.60;;
3704;SDS011;1868;48.918;9.438;2023-06-01T16:03:43;1.60;;;1.50;;